Farmers Store, North Carolina
Current Conditions -  °F | °C
As of 12:55 PM on Monday 22 Dec 2014 (Local Time) from KGEV Reporting Station
Moderate Fog Moderate Fog  
Wind Chill: 37°   Ceiling: 300
Heat Index: 37°   Visibility: 0.25mi
Dew Point: 37°   Wind: 0mph
Humidity: 100%   Direction: NA
Pressure: 30"   Gusts: NA
Location:  36.524°N, 81.538°W
Report Text: KGEV 221755Z AUTO 00000KT 1/4SM FG OVC003 03/03 A3000 RMK AO2 T00280028 10028 20006
Loading
Personal Weather Stations






























Interactive Weather Map New forecast layout! Learn more

10-Day Weather Forecast

Advertisements
Track Severe Weather on mobile